sensor_id;sensor_type;location;lat;lon;timestamp;temperature;humidity
19449;DHT22;9863;49.404;8.246;2022-10-26T00:01:20;11.70;99.90
19449;DHT22;9863;49.404;8.246;2022-10-26T00:03:48;11.60;99.90
19449;DHT22;9863;49.404;8.246;2022-10-26T00:06:18;11.60;99.90
19449;DHT22;9863;49.404;8.246;2022-10-26T00:08:47;11.70;99.90
19449;DHT22;9863;49.404;8.246;2022-10-26T00:11:17;11.70;99.90
19449;DHT22;9863;49.404;8.246;2022-10-26T00:13:46;11.70;99.90
19449;DHT22;9863;49.404;8.246;2022-10-26T00:16:21;11.70;99.90
19449;DHT22;9863;49.404;8.246;2022-10-26T00:18:51;11.60;99.90
19449;DHT22;9863;49.404;8.246;2022-10-26T00:21:19;11.60;99.90
19449;DHT22;9863;49.404;8.246;2022-10-26T00:23:47;11.70;99.90
19449;DHT22;9863;49.404;8.246;2022-10-26T00:26:15;11.70;99.90
19449;DHT22;9863;49.404;8.246;2022-10-26T00:28:43;11.70;99.90
19449;DHT22;9863;49.404;8.246;2022-10-26T00:31:14;11.70;99.90
19449;DHT22;9863;49.404;8.246;2022-10-26T00:33:43;11.70;99.90
19449;DHT22;9863;49.404;8.246;2022-10-26T00:36:11;11.70;99.90
19449;DHT22;9863;49.404;8.246;2022-10-26T00:38:51;11.60;99.90
19449;DHT22;9863;49.404;8.246;2022-10-26T00:41:29;11.70;99.90
19449;DHT22;9863;49.404;8.246;2022-10-26T00:43:59;11.70;99.90
19449;DHT22;9863;49.404;8.246;2022-10-26T00:46:36;11.60;99.90
19449;DHT22;9863;49.404;8.246;2022-10-26T00:49:14;11.70;99.90
19449;DHT22;9863;49.404;8.246;2022-10-26T00:51:46;11.70;99.90
19449;DHT22;9863;49.404;8.246;2022-10-26T00:54:18;11.70;99.90
19449;DHT22;9863;49.404;8.246;2022-10-26T00:56:48;11.80;99.90
19449;DHT22;9863;49.404;8.246;2022-10-26T00:59:18;11.80;99.90
19449;DHT22;9863;49.404;8.246;2022-10-26T01:01:48;11.80;99.90
19449;DHT22;9863;49.404;8.246;2022-10-26T01:04:18;12.00;99.90
19449;DHT22;9863;49.404;8.246;2022-10-26T01:06:46;12.00;99.90
19449;DHT22;9863;49.404;8.246;2022-10-26T01:09:16;12.00;99.90
19449;DHT22;9863;49.404;8.246;2022-10-26T01:11:44;11.90;99.90
19449;DHT22;9863;49.404;8.246;2022-10-26T01:14:14;11.90;99.90
19449;DHT22;9863;49.404;8.246;2022-10-26T01:22:28;11.90;99.90
19449;DHT22;9863;49.404;8.246;2022-10-26T01:27:53;12.00;99.90
19449;DHT22;9863;49.404;8.246;2022-10-26T01:30:43;12.00;99.90
19449;DHT22;9863;49.404;8.246;2022-10-26T01:36:14;12.00;99.90
19449;DHT22;9863;49.404;8.246;2022-10-26T01:41:46;11.90;99.90
19449;DHT22;9863;49.404;8.246;2022-10-26T01:44:20;11.90;99.90
19449;DHT22;9863;49.404;8.246;2022-10-26T01:47:08;11.90;99.90
19449;DHT22;9863;49.404;8.246;2022-10-26T01:49:42;11.90;99.90
19449;DHT22;9863;49.404;8.246;2022-10-26T01:52:13;11.90;99.90
19449;DHT22;9863;49.404;8.246;2022-10-26T01:54:41;12.00;99.90
19449;DHT22;9863;49.404;8.246;2022-10-26T01:57:12;12.00;99.90
19449;DHT22;9863;49.404;8.246;2022-10-26T02:11:36;12.10;99.90
19449;DHT22;9863;49.404;8.246;2022-10-26T02:14:16;12.10;99.90
19449;DHT22;9863;49.404;8.246;2022-10-26T02:17:27;12.10;99.90
19449;DHT22;9863;49.404;8.246;2022-10-26T02:20:03;12.10;99.90
19449;DHT22;9863;49.404;8.246;2022-10-26T02:22:35;12.10;99.90
19449;DHT22;9863;49.404;8.246;2022-10-26T02:25:11;12.10;99.90
19449;DHT22;9863;49.404;8.246;2022-10-26T02:27:52;12.10;99.90
19449;DHT22;9863;49.404;8.246;2022-10-26T02:30:22;12.00;99.90
19449;DHT22;9863;49.404;8.246;2022-10-26T02:32:52;12.00;99.90
19449;DHT22;9863;49.404;8.246;2022-10-26T02:35:28;12.00;99.90
19449;DHT22;9863;49.404;8.246;2022-10-26T02:38:00;12.00;99.90
19449;DHT22;9863;49.404;8.246;2022-10-26T02:40:30;12.00;99.90
19449;DHT22;9863;49.404;8.246;2022-10-26T02:43:02;12.10;99.90
19449;DHT22;9863;49.404;8.246;2022-10-26T02:45:54;12.10;99.90
19449;DHT22;9863;49.404;8.246;2022-10-26T02:48:24;12.10;99.90
19449;DHT22;9863;49.404;8.246;2022-10-26T02:56:50;12.10;99.90
19449;DHT22;9863;49.404;8.246;2022-10-26T02:59:23;12.10;99.90
19449;DHT22;9863;49.404;8.246;2022-10-26T03:01:54;12.10;99.90
19449;DHT22;9863;49.404;8.246;2022-10-26T03:04:30;12.20;99.90
19449;DHT22;9863;49.404;8.246;2022-10-26T03:06:59;12.20;99.90
19449;DHT22;9863;49.404;8.246;2022-10-26T03:09:27;12.20;99.90
19449;DHT22;9863;49.404;8.246;2022-10-26T03:11:55;12.20;99.90
19449;DHT22;9863;49.404;8.246;2022-10-26T03:14:23;12.20;99.90
19449;DHT22;9863;49.404;8.246;2022-10-26T03:16:51;12.20;99.90
19449;DHT22;9863;49.404;8.246;2022-10-26T03:19:19;12.20;99.90
19449;DHT22;9863;49.404;8.246;2022-10-26T03:21:47;12.10;99.90
19449;DHT22;9863;49.404;8.246;2022-10-26T03:26:43;12.10;99.90
19449;DHT22;9863;49.404;8.246;2022-10-26T03:29:11;12.10;99.90
19449;DHT22;9863;49.404;8.246;2022-10-26T03:31:39;12.10;99.90
19449;DHT22;9863;49.404;8.246;2022-10-26T03:34:07;12.10;99.90
19449;DHT22;9863;49.404;8.246;2022-10-26T03:36:35;12.10;99.90
19449;DHT22;9863;49.404;8.246;2022-10-26T03:39:03;12.10;99.90
19449;DHT22;9863;49.404;8.246;2022-10-26T03:41:31;12.10;99.90
19449;DHT22;9863;49.404;8.246;2022-10-26T03:43:58;12.10;99.90
19449;DHT22;9863;49.404;8.246;2022-10-26T03:46:26;12.10;99.90
19449;DHT22;9863;49.404;8.246;2022-10-26T03:48:54;12.10;99.90
19449;DHT22;9863;49.404;8.246;2022-10-26T03:51:22;12.10;99.90
19449;DHT22;9863;49.404;8.246;2022-10-26T03:53:50;12.10;99.90
19449;DHT22;9863;49.404;8.246;2022-10-26T03:56:18;12.10;99.90
19449;DHT22;9863;49.404;8.246;2022-10-26T03:58:46;12.10;99.90
19449;DHT22;9863;49.404;8.246;2022-10-26T04:01:14;12.10;99.90
19449;DHT22;9863;49.404;8.246;2022-10-26T04:03:42;12.00;99.90
19449;DHT22;9863;49.404;8.246;2022-10-26T04:06:10;12.10;99.90
19449;DHT22;9863;49.404;8.246;2022-10-26T04:08:38;12.00;99.90
19449;DHT22;9863;49.404;8.246;2022-10-26T04:11:06;12.00;99.90
19449;DHT22;9863;49.404;8.246;2022-10-26T04:13:34;12.00;99.90
19449;DHT22;9863;49.404;8.246;2022-10-26T04:16:02;12.00;99.90
19449;DHT22;9863;49.404;8.246;2022-10-26T04:18:30;12.00;99.90
19449;DHT22;9863;49.404;8.246;2022-10-26T04:21:01;12.00;99.90
19449;DHT22;9863;49.404;8.246;2022-10-26T04:23:29;11.90;99.90
19449;DHT22;9863;49.404;8.246;2022-10-26T04:25:57;12.00;99.90
19449;DHT22;9863;49.404;8.246;2022-10-26T04:28:25;11.90;99.90
19449;DHT22;9863;49.404;8.246;2022-10-26T04:30:53;11.90;99.90
19449;DHT22;9863;49.404;8.246;2022-10-26T04:33:21;11.90;99.90
19449;DHT22;9863;49.404;8.246;2022-10-26T04:35:49;11.90;99.90
19449;DHT22;9863;49.404;8.246;2022-10-26T04:38:17;11.90;99.90
19449;DHT22;9863;49.404;8.246;2022-10-26T04:40:44;11.80;99.90
19449;DHT22;9863;49.404;8.246;2022-10-26T04:43:12;11.80;99.90
19449;DHT22;9863;49.404;8.246;2022-10-26T04:45:40;11.80;99.90
19449;DHT22;9863;49.404;8.246;2022-10-26T04:48:12;11.80;99.90
19449;DHT22;9863;49.404;8.246;2022-10-26T04:50:40;11.80;99.90
19449;DHT22;9863;49.404;8.246;2022-10-26T04:53:10;11.80;99.90
19449;DHT22;9863;49.404;8.246;2022-10-26T04:55:38;11.80;99.90
19449;DHT22;9863;49.404;8.246;2022-10-26T04:58:06;11.80;99.90
19449;DHT22;9863;49.404;8.246;2022-10-26T05:00:34;11.80;99.90
19449;DHT22;9863;49.404;8.246;2022-10-26T05:03:04;11.80;99.90
19449;DHT22;9863;49.404;8.246;2022-10-26T05:05:34;11.80;99.90
19449;DHT22;9863;49.404;8.246;2022-10-26T05:08:03;11.80;99.90
19449;DHT22;9863;49.404;8.246;2022-10-26T05:10:32;11.80;99.90
19449;DHT22;9863;49.404;8.246;2022-10-26T05:13:00;11.80;99.90
19449;DHT22;9863;49.404;8.246;2022-10-26T05:15:29;11.80;99.90
19449;DHT22;9863;49.404;8.246;2022-10-26T05:18:01;11.90;99.90
19449;DHT22;9863;49.404;8.246;2022-10-26T05:20:32;11.90;99.90
19449;DHT22;9863;49.404;8.246;2022-10-26T05:23:03;11.90;99.90
19449;DHT22;9863;49.404;8.246;2022-10-26T05:25:36;11.90;99.90
19449;DHT22;9863;49.404;8.246;2022-10-26T05:28:08;11.90;99.90
19449;DHT22;9863;49.404;8.246;2022-10-26T05:30:42;11.90;99.90
19449;DHT22;9863;49.404;8.246;2022-10-26T05:33:12;11.90;99.90
19449;DHT22;9863;49.404;8.246;2022-10-26T05:35:41;11.80;99.90
19449;DHT22;9863;49.404;8.246;2022-10-26T05:38:14;11.80;99.90
19449;DHT22;9863;49.404;8.246;2022-10-26T05:40:47;11.80;99.90
19449;DHT22;9863;49.404;8.246;2022-10-26T05:43:17;11.80;99.90
19449;DHT22;9863;49.404;8.246;2022-10-26T05:45:45;11.70;99.90
19449;DHT22;9863;49.404;8.246;2022-10-26T05:48:13;11.80;99.90
19449;DHT22;9863;49.404;8.246;2022-10-26T05:50:41;11.80;99.90
19449;DHT22;9863;49.404;8.246;2022-10-26T05:53:09;11.80;99.90
19449;DHT22;9863;49.404;8.246;2022-10-26T05:55:37;11.80;99.90
19449;DHT22;9863;49.404;8.246;2022-10-26T05:58:10;11.80;99.90
19449;DHT22;9863;49.404;8.246;2022-10-26T06:00:48;11.80;99.90
19449;DHT22;9863;49.404;8.246;2022-10-26T06:06:41;11.80;99.90
19449;DHT22;9863;49.404;8.246;2022-10-26T06:09:12;11.80;99.90
19449;DHT22;9863;49.404;8.246;2022-10-26T06:11:42;11.80;99.90
19449;DHT22;9863;49.404;8.246;2022-10-26T06:14:10;11.80;99.90
19449;DHT22;9863;49.404;8.246;2022-10-26T06:22:55;11.90;99.90
19449;DHT22;9863;49.404;8.246;2022-10-26T06:26:00;11.90;99.90
19449;DHT22;9863;49.404;8.246;2022-10-26T06:28:59;11.90;99.90
19449;DHT22;9863;49.404;8.246;2022-10-26T06:31:38;11.90;99.90
19449;DHT22;9863;49.404;8.246;2022-10-26T06:34:09;11.90;99.90
19449;DHT22;9863;49.404;8.246;2022-10-26T06:36:39;11.90;99.90
19449;DHT22;9863;49.404;8.246;2022-10-26T06:39:09;11.90;99.90
19449;DHT22;9863;49.404;8.246;2022-10-26T06:41:38;12.00;99.90
19449;DHT22;9863;49.404;8.246;2022-10-26T06:44:14;12.00;99.90
19449;DHT22;9863;49.404;8.246;2022-10-26T06:52:04;12.00;99.90
19449;DHT22;9863;49.404;8.246;2022-10-26T06:54:48;12.00;99.90
19449;DHT22;9863;49.404;8.246;2022-10-26T06:57:23;12.00;99.90
19449;DHT22;9863;49.404;8.246;2022-10-26T06:59:56;12.00;99.90
19449;DHT22;9863;49.404;8.246;2022-10-26T07:02:27;12.00;99.90
19449;DHT22;9863;49.404;8.246;2022-10-26T07:04:55;12.10;99.90
19449;DHT22;9863;49.404;8.246;2022-10-26T07:07:28;12.10;99.90
19449;DHT22;9863;49.404;8.246;2022-10-26T07:09:57;12.20;99.90
19449;DHT22;9863;49.404;8.246;2022-10-26T07:12:25;13.10;99.90
19449;DHT22;9863;49.404;8.246;2022-10-26T07:14:59;12.30;99.90
19449;DHT22;9863;49.404;8.246;2022-10-26T07:17:27;12.20;99.90
19449;DHT22;9863;49.404;8.246;2022-10-26T07:19:57;12.30;99.90
19449;DHT22;9863;49.404;8.246;2022-10-26T07:22:24;12.30;99.90
19449;DHT22;9863;49.404;8.246;2022-10-26T07:24:52;12.30;99.90
19449;DHT22;9863;49.404;8.246;2022-10-26T07:27:25;12.30;99.90
19449;DHT22;9863;49.404;8.246;2022-10-26T07:29:53;12.40;99.90
19449;DHT22;9863;49.404;8.246;2022-10-26T07:32:21;12.40;99.90
19449;DHT22;9863;49.404;8.246;2022-10-26T07:34:49;12.40;99.90
19449;DHT22;9863;49.404;8.246;2022-10-26T07:37:17;12.50;99.90
19449;DHT22;9863;49.404;8.246;2022-10-26T07:39:45;12.50;99.90
19449;DHT22;9863;49.404;8.246;2022-10-26T07:42:14;12.50;99.90
19449;DHT22;9863;49.404;8.246;2022-10-26T07:44:42;12.60;99.90
19449;DHT22;9863;49.404;8.246;2022-10-26T07:47:11;12.60;99.90
19449;DHT22;9863;49.404;8.246;2022-10-26T07:49:39;12.70;99.90
19449;DHT22;9863;49.404;8.246;2022-10-26T07:52:08;12.80;99.90
19449;DHT22;9863;49.404;8.246;2022-10-26T07:54:36;12.80;99.90
19449;DHT22;9863;49.404;8.246;2022-10-26T07:57:04;12.90;99.90
19449;DHT22;9863;49.404;8.246;2022-10-26T07:59:33;12.90;99.90
19449;DHT22;9863;49.404;8.246;2022-10-26T08:02:01;13.00;99.90
19449;DHT22;9863;49.404;8.246;2022-10-26T08:04:29;13.00;99.90
19449;DHT22;9863;49.404;8.246;2022-10-26T08:06:57;13.10;99.90
19449;DHT22;9863;49.404;8.246;2022-10-26T08:09:25;13.10;99.90
19449;DHT22;9863;49.404;8.246;2022-10-26T08:11:53;13.20;99.90
19449;DHT22;9863;49.404;8.246;2022-10-26T08:14:21;13.20;99.90
19449;DHT22;9863;49.404;8.246;2022-10-26T08:16:49;13.30;99.90
19449;DHT22;9863;49.404;8.246;2022-10-26T08:19:19;13.40;99.90
19449;DHT22;9863;49.404;8.246;2022-10-26T08:21:47;13.50;99.90
19449;DHT22;9863;49.404;8.246;2022-10-26T08:24:15;13.70;99.90
19449;DHT22;9863;49.404;8.246;2022-10-26T08:26:44;13.80;99.90
19449;DHT22;9863;49.404;8.246;2022-10-26T08:29:13;14.00;99.90
19449;DHT22;9863;49.404;8.246;2022-10-26T08:31:41;14.20;99.90
19449;DHT22;9863;49.404;8.246;2022-10-26T08:34:10;14.40;99.90
19449;DHT22;9863;49.404;8.246;2022-10-26T08:39:08;14.50;99.90
19449;DHT22;9863;49.404;8.246;2022-10-26T08:41:42;14.70;99.90
19449;DHT22;9863;49.404;8.246;2022-10-26T08:44:24;14.80;99.90
19449;DHT22;9863;49.404;8.246;2022-10-26T08:47:15;14.90;99.90
19449;DHT22;9863;49.404;8.246;2022-10-26T08:52:31;15.00;99.90
19449;DHT22;9863;49.404;8.246;2022-10-26T08:55:13;15.10;99.90
19449;DHT22;9863;49.404;8.246;2022-10-26T08:57:44;15.30;99.90
19449;DHT22;9863;49.404;8.246;2022-10-26T09:00:18;15.30;99.90
19449;DHT22;9863;49.404;8.246;2022-10-26T09:02:51;15.30;99.90
19449;DHT22;9863;49.404;8.246;2022-10-26T09:05:30;15.30;99.90
19449;DHT22;9863;49.404;8.246;2022-10-26T09:08:24;15.40;99.90
19449;DHT22;9863;49.404;8.246;2022-10-26T09:16:52;15.60;99.90
19449;DHT22;9863;49.404;8.246;2022-10-26T09:26:00;16.20;99.90
19449;DHT22;9863;49.404;8.246;2022-10-26T09:28:32;16.20;99.90
19449;DHT22;9863;49.404;8.246;2022-10-26T09:31:04;16.40;99.90
19449;DHT22;9863;49.404;8.246;2022-10-26T09:33:35;16.60;99.90
19449;DHT22;9863;49.404;8.246;2022-10-26T09:36:10;16.80;99.90
19449;DHT22;9863;49.404;8.246;2022-10-26T09:41:26;17.10;99.90
19449;DHT22;9863;49.404;8.246;2022-10-26T09:44:20;17.40;99.90
19449;DHT22;9863;49.404;8.246;2022-10-26T09:47:14;17.60;99.90
19449;DHT22;9863;49.404;8.246;2022-10-26T09:50:24;18.00;99.90
19449;DHT22;9863;49.404;8.246;2022-10-26T09:52:55;18.10;99.90
19449;DHT22;9863;49.404;8.246;2022-10-26T09:55:23;18.20;99.90
19449;DHT22;9863;49.404;8.246;2022-10-26T09:57:55;18.00;99.90
19449;DHT22;9863;49.404;8.246;2022-10-26T10:00:26;18.10;99.90
19449;DHT22;9863;49.404;8.246;2022-10-26T10:02:56;18.20;99.90
19449;DHT22;9863;49.404;8.246;2022-10-26T10:05:34;18.50;99.90
19449;DHT22;9863;49.404;8.246;2022-10-26T10:08:22;18.50;99.90
19449;DHT22;9863;49.404;8.246;2022-10-26T10:13:29;18.60;99.90
19449;DHT22;9863;49.404;8.246;2022-10-26T10:16:05;18.60;99.90
19449;DHT22;9863;49.404;8.246;2022-10-26T10:18:57;18.60;99.90
19449;DHT22;9863;49.404;8.246;2022-10-26T10:21:43;18.60;99.90
19449;DHT22;9863;49.404;8.246;2022-10-26T10:24:29;18.60;99.90
19449;DHT22;9863;49.404;8.246;2022-10-26T10:32:30;18.70;99.90
19449;DHT22;9863;49.404;8.246;2022-10-26T10:35:23;18.70;99.90
19449;DHT22;9863;49.404;8.246;2022-10-26T10:38:03;18.80;99.90
19449;DHT22;9863;49.404;8.246;2022-10-26T10:40:30;18.80;99.90
19449;DHT22;9863;49.404;8.246;2022-10-26T10:43:10;18.80;99.90
19449;DHT22;9863;49.404;8.246;2022-10-26T10:45:39;18.90;99.90
19449;DHT22;9863;49.404;8.246;2022-10-26T10:48:19;18.90;99.90
19449;DHT22;9863;49.404;8.246;2022-10-26T10:51:04;18.90;99.90
19449;DHT22;9863;49.404;8.246;2022-10-26T10:53:50;18.80;99.90
19449;DHT22;9863;49.404;8.246;2022-10-26T11:09:00;19.10;99.90
19449;DHT22;9863;49.404;8.246;2022-10-26T11:11:57;19.00;99.90
19449;DHT22;9863;49.404;8.246;2022-10-26T11:25:29;18.90;99.90
19449;DHT22;9863;49.404;8.246;2022-10-26T11:31:00;18.90;99.90
19449;DHT22;9863;49.404;8.246;2022-10-26T11:33:45;18.90;99.90
19449;DHT22;9863;49.404;8.246;2022-10-26T11:36:23;19.00;99.90
19449;DHT22;9863;49.404;8.246;2022-10-26T11:39:12;19.10;99.90
19449;DHT22;9863;49.404;8.246;2022-10-26T11:41:59;19.10;99.90
19449;DHT22;9863;49.404;8.246;2022-10-26T11:44:30;19.20;99.90
19449;DHT22;9863;49.404;8.246;2022-10-26T11:47:13;19.30;99.90
19449;DHT22;9863;49.404;8.246;2022-10-26T11:52:47;19.40;99.90
19449;DHT22;9863;49.404;8.246;2022-10-26T11:55:21;19.50;99.90
19449;DHT22;9863;49.404;8.246;2022-10-26T11:57:51;19.60;99.90
19449;DHT22;9863;49.404;8.246;2022-10-26T12:00:20;19.70;99.90
19449;DHT22;9863;49.404;8.246;2022-10-26T12:03:02;19.90;99.90
19449;DHT22;9863;49.404;8.246;2022-10-26T12:05:48;20.20;99.90
19449;DHT22;9863;49.404;8.246;2022-10-26T12:08:24;20.60;99.90
19449;DHT22;9863;49.404;8.246;2022-10-26T12:11:04;21.10;99.90
19449;DHT22;9863;49.404;8.246;2022-10-26T12:13:46;21.50;99.90
19449;DHT22;9863;49.404;8.246;2022-10-26T12:17:01;21.80;99.90
19449;DHT22;9863;49.404;8.246;2022-10-26T12:22:13;21.80;99.90
19449;DHT22;9863;49.404;8.246;2022-10-26T12:24:45;22.00;99.90
19449;DHT22;9863;49.404;8.246;2022-10-26T12:41:17;22.60;99.90
19449;DHT22;9863;49.404;8.246;2022-10-26T12:43:45;22.90;99.90
19449;DHT22;9863;49.404;8.246;2022-10-26T13:00:02;23.20;99.90
19449;DHT22;9863;49.404;8.246;2022-10-26T13:06:22;22.80;99.90
19449;DHT22;9863;49.404;8.246;2022-10-26T13:08:57;22.80;99.90
19449;DHT22;9863;49.404;8.246;2022-10-26T13:11:36;23.10;99.90
19449;DHT22;9863;49.404;8.246;2022-10-26T13:14:28;23.00;99.90
19449;DHT22;9863;49.404;8.246;2022-10-26T13:17:00;23.00;99.90
19449;DHT22;9863;49.404;8.246;2022-10-26T13:19:47;22.90;99.90
19449;DHT22;9863;49.404;8.246;2022-10-26T13:22:19;23.00;99.90
19449;DHT22;9863;49.404;8.246;2022-10-26T13:24:50;23.00;99.90
19449;DHT22;9863;49.404;8.246;2022-10-26T13:27:23;23.00;99.90
19449;DHT22;9863;49.404;8.246;2022-10-26T13:30:20;23.00;99.90
19449;DHT22;9863;49.404;8.246;2022-10-26T13:33:09;23.00;99.90
19449;DHT22;9863;49.404;8.246;2022-10-26T13:35:43;23.10;99.90
19449;DHT22;9863;49.404;8.246;2022-10-26T13:38:19;23.20;99.90
19449;DHT22;9863;49.404;8.246;2022-10-26T13:40:49;23.10;99.90
19449;DHT22;9863;49.404;8.246;2022-10-26T13:43:21;23.00;99.90
19449;DHT22;9863;49.404;8.246;2022-10-26T13:46:02;23.00;99.90
19449;DHT22;9863;49.404;8.246;2022-10-26T13:48:40;23.20;99.90
19449;DHT22;9863;49.404;8.246;2022-10-26T13:54:15;22.90;99.90
19449;DHT22;9863;49.404;8.246;2022-10-26T13:56:55;22.80;99.90
19449;DHT22;9863;49.404;8.246;2022-10-26T13:59:30;22.80;99.90
19449;DHT22;9863;49.404;8.246;2022-10-26T14:02:27;22.90;99.90
19449;DHT22;9863;49.404;8.246;2022-10-26T14:05:03;23.20;99.90
19449;DHT22;9863;49.404;8.246;2022-10-26T14:07:35;23.30;99.90
19449;DHT22;9863;49.404;8.246;2022-10-26T14:10:33;23.20;99.90
19449;DHT22;9863;49.404;8.246;2022-10-26T14:13:16;23.30;99.90
19449;DHT22;9863;49.404;8.246;2022-10-26T14:15:51;23.20;99.90
19449;DHT22;9863;49.404;8.246;2022-10-26T14:18:28;23.10;99.90
19449;DHT22;9863;49.404;8.246;2022-10-26T14:21:00;23.20;99.90
19449;DHT22;9863;49.404;8.246;2022-10-26T14:23:45;23.00;99.90
19449;DHT22;9863;49.404;8.246;2022-10-26T14:26:21;22.80;99.90
19449;DHT22;9863;49.404;8.246;2022-10-26T14:29:00;22.90;99.90
19449;DHT22;9863;49.404;8.246;2022-10-26T14:31:29;22.90;99.90
19449;DHT22;9863;49.404;8.246;2022-10-26T14:33:59;22.80;99.90
19449;DHT22;9863;49.404;8.246;2022-10-26T14:36:35;22.70;99.90
19449;DHT22;9863;49.404;8.246;2022-10-26T14:39:11;22.40;99.90
19449;DHT22;9863;49.404;8.246;2022-10-26T14:41:59;22.40;99.90
19449;DHT22;9863;49.404;8.246;2022-10-26T14:44:29;22.30;99.90
19449;DHT22;9863;49.404;8.246;2022-10-26T14:46:56;22.40;99.90
19449;DHT22;9863;49.404;8.246;2022-10-26T14:49:26;22.50;99.90
19449;DHT22;9863;49.404;8.246;2022-10-26T14:51:58;22.50;99.90
19449;DHT22;9863;49.404;8.246;2022-10-26T14:54:30;22.50;99.90
19449;DHT22;9863;49.404;8.246;2022-10-26T14:56:59;22.20;99.90
19449;DHT22;9863;49.404;8.246;2022-10-26T14:59:34;22.20;99.90
19449;DHT22;9863;49.404;8.246;2022-10-26T15:02:18;22.00;99.90
19449;DHT22;9863;49.404;8.246;2022-10-26T15:05:14;21.70;99.90
19449;DHT22;9863;49.404;8.246;2022-10-26T15:07:44;21.80;99.90
19449;DHT22;9863;49.404;8.246;2022-10-26T15:16:06;21.80;99.90
19449;DHT22;9863;49.404;8.246;2022-10-26T15:18:37;21.50;99.90
19449;DHT22;9863;49.404;8.246;2022-10-26T15:21:22;21.50;99.90
19449;DHT22;9863;49.404;8.246;2022-10-26T15:23:52;21.30;99.90
19449;DHT22;9863;49.404;8.246;2022-10-26T15:26:20;21.10;99.90
19449;DHT22;9863;49.404;8.246;2022-10-26T15:28:48;21.10;99.90
19449;DHT22;9863;49.404;8.246;2022-10-26T15:36:30;20.60;99.90
19449;DHT22;9863;49.404;8.246;2022-10-26T15:38:58;20.30;99.90
19449;DHT22;9863;49.404;8.246;2022-10-26T15:41:30;20.30;99.90
19449;DHT22;9863;49.404;8.246;2022-10-26T15:44:00;20.20;99.90
19449;DHT22;9863;49.404;8.246;2022-10-26T15:46:33;20.10;99.90
19449;DHT22;9863;49.404;8.246;2022-10-26T15:49:06;20.10;99.90
19449;DHT22;9863;49.404;8.246;2022-10-26T15:51:34;20.00;99.90
19449;DHT22;9863;49.404;8.246;2022-10-26T15:54:02;19.80;99.90
19449;DHT22;9863;49.404;8.246;2022-10-26T15:56:30;19.70;99.90
19449;DHT22;9863;49.404;8.246;2022-10-26T15:58:58;19.70;99.90
19449;DHT22;9863;49.404;8.246;2022-10-26T16:01:27;19.60;99.90
19449;DHT22;9863;49.404;8.246;2022-10-26T16:03:55;19.60;99.90
19449;DHT22;9863;49.404;8.246;2022-10-26T16:06:32;19.80;99.90
19449;DHT22;9863;49.404;8.246;2022-10-26T16:09:02;19.90;99.90
19449;DHT22;9863;49.404;8.246;2022-10-26T16:11:30;19.90;99.90
19449;DHT22;9863;49.404;8.246;2022-10-26T16:13:58;19.80;99.90
19449;DHT22;9863;49.404;8.246;2022-10-26T16:16:29;19.80;99.90
19449;DHT22;9863;49.404;8.246;2022-10-26T16:18:57;19.70;99.90
19449;DHT22;9863;49.404;8.246;2022-10-26T16:21:43;19.40;99.90
19449;DHT22;9863;49.404;8.246;2022-10-26T16:24:10;19.20;99.90
19449;DHT22;9863;49.404;8.246;2022-10-26T16:26:38;18.40;99.90
19449;DHT22;9863;49.404;8.246;2022-10-26T16:29:05;18.40;99.90
19449;DHT22;9863;49.404;8.246;2022-10-26T16:31:32;18.30;99.90
19449;DHT22;9863;49.404;8.246;2022-10-26T16:33:59;18.30;99.90
19449;DHT22;9863;49.404;8.246;2022-10-26T16:36:29;18.10;99.90
19449;DHT22;9863;49.404;8.246;2022-10-26T16:39:00;18.10;99.90
19449;DHT22;9863;49.404;8.246;2022-10-26T16:41:28;17.90;99.90
19449;DHT22;9863;49.404;8.246;2022-10-26T16:43:57;17.80;99.90
19449;DHT22;9863;49.404;8.246;2022-10-26T16:46:24;17.50;99.90
19449;DHT22;9863;49.404;8.246;2022-10-26T16:48:51;17.10;99.90
19449;DHT22;9863;49.404;8.246;2022-10-26T16:51:26;17.10;99.90
19449;DHT22;9863;49.404;8.246;2022-10-26T16:53:55;17.00;99.90
19449;DHT22;9863;49.404;8.246;2022-10-26T16:56:25;17.10;99.90
19449;DHT22;9863;49.404;8.246;2022-10-26T16:58:54;17.00;99.90
19449;DHT22;9863;49.404;8.246;2022-10-26T17:01:22;17.00;99.90
19449;DHT22;9863;49.404;8.246;2022-10-26T17:03:50;16.90;99.90
19449;DHT22;9863;49.404;8.246;2022-10-26T17:06:18;16.90;99.90
19449;DHT22;9863;49.404;8.246;2022-10-26T17:08:45;16.90;99.90
19449;DHT22;9863;49.404;8.246;2022-10-26T17:11:16;16.80;99.90
19449;DHT22;9863;49.404;8.246;2022-10-26T17:13:45;16.70;99.90
19449;DHT22;9863;49.404;8.246;2022-10-26T17:16:18;16.70;99.90
19449;DHT22;9863;49.404;8.246;2022-10-26T17:18:46;16.50;99.90
19449;DHT22;9863;49.404;8.246;2022-10-26T17:21:15;16.30;99.90
19449;DHT22;9863;49.404;8.246;2022-10-26T17:23:43;16.00;99.90
19449;DHT22;9863;49.404;8.246;2022-10-26T17:26:12;16.00;99.90
19449;DHT22;9863;49.404;8.246;2022-10-26T17:28:39;16.00;99.90
19449;DHT22;9863;49.404;8.246;2022-10-26T17:31:08;15.90;99.90
19449;DHT22;9863;49.404;8.246;2022-10-26T17:33:42;15.90;99.90
19449;DHT22;9863;49.404;8.246;2022-10-26T17:36:11;15.90;99.90
19449;DHT22;9863;49.404;8.246;2022-10-26T17:38:40;15.90;99.90
19449;DHT22;9863;49.404;8.246;2022-10-26T17:41:16;15.80;99.90
19449;DHT22;9863;49.404;8.246;2022-10-26T17:43:45;15.70;99.90
19449;DHT22;9863;49.404;8.246;2022-10-26T17:46:18;15.60;99.90
19449;DHT22;9863;49.404;8.246;2022-10-26T17:48:46;15.50;99.90
19449;DHT22;9863;49.404;8.246;2022-10-26T17:51:16;15.40;99.90
19449;DHT22;9863;49.404;8.246;2022-10-26T17:53:47;15.40;99.90
19449;DHT22;9863;49.404;8.246;2022-10-26T17:56:16;15.40;99.90
19449;DHT22;9863;49.404;8.246;2022-10-26T17:58:52;15.40;99.90
19449;DHT22;9863;49.404;8.246;2022-10-26T18:01:20;15.40;99.90
19449;DHT22;9863;49.404;8.246;2022-10-26T18:03:48;15.30;99.90
19449;DHT22;9863;49.404;8.246;2022-10-26T18:06:15;15.30;99.90
19449;DHT22;9863;49.404;8.246;2022-10-26T18:08:45;15.20;99.90
19449;DHT22;9863;49.404;8.246;2022-10-26T18:11:17;15.20;99.90
19449;DHT22;9863;49.404;8.246;2022-10-26T18:13:52;15.20;99.90
19449;DHT22;9863;49.404;8.246;2022-10-26T18:16:21;15.20;99.90
19449;DHT22;9863;49.404;8.246;2022-10-26T18:18:55;15.10;99.90
19449;DHT22;9863;49.404;8.246;2022-10-26T18:21:28;15.00;99.90
19449;DHT22;9863;49.404;8.246;2022-10-26T18:23:57;15.00;99.90
19449;DHT22;9863;49.404;8.246;2022-10-26T18:26:30;14.90;99.90
19449;DHT22;9863;49.404;8.246;2022-10-26T18:29:03;14.90;99.90
19449;DHT22;9863;49.404;8.246;2022-10-26T18:31:31;14.70;99.90
19449;DHT22;9863;49.404;8.246;2022-10-26T18:34:02;14.60;99.90
19449;DHT22;9863;49.404;8.246;2022-10-26T18:36:30;14.70;99.90
19449;DHT22;9863;49.404;8.246;2022-10-26T18:38:58;14.60;99.90
19449;DHT22;9863;49.404;8.246;2022-10-26T18:41:25;14.70;99.90
19449;DHT22;9863;49.404;8.246;2022-10-26T18:43:54;14.70;99.90
19449;DHT22;9863;49.404;8.246;2022-10-26T18:46:27;14.80;99.90
19449;DHT22;9863;49.404;8.246;2022-10-26T18:48:57;14.80;99.90
19449;DHT22;9863;49.404;8.246;2022-10-26T18:51:28;14.70;99.90
19449;DHT22;9863;49.404;8.246;2022-10-26T18:53:57;14.70;99.90
19449;DHT22;9863;49.404;8.246;2022-10-26T18:56:25;14.70;99.90